Time;durP1;ratioP1;P1;durP2;ratioP2;P2;SDS_P1;SDS_P2;PMS_P1;PMS_P2;Temp;Humidity;BMP_temperature;BMP_pressure;BME280_temperature;BME280_humidity;BME280_pressure;Samples;Min_cycle;Max_cycle;Signal;HPM_P1;HPM_P2
2022/08/30 00:01:05;;;;;;;;;;;;;;;18.12;65.74;102008.00;5014313;28;19917;-57
2022/08/30 00:03:46;;;;;;;;;;;;;;;18.10;65.91;102008.19;5016199;28;19916;-56
2022/08/30 00:06:13;;;;;;;;;;;;;;;18.10;65.74;102004.69;5016653;28;19913;-55
2022/08/30 00:08:39;;;;;;;;;;;;;;;18.11;65.79;102007.16;5022822;28;19986;-55
2022/08/30 00:11:07;;;;;;;;;;;;;;;18.11;65.76;102007.16;5014252;28;20377;-56
2022/08/30 00:13:32;;;;;;;;;;;;;;;18.11;65.53;102003.66;5012502;28;19917;-57
2022/08/30 00:15:57;;;;;;;;;;;;;;;18.08;66.00;101996.81;5019710;28;20507;-56
2022/08/30 00:18:23;;;;;;;;;;;;;;;18.06;66.02;101996.16;5020415;28;20451;-56
2022/08/30 00:20:48;;;;;;;;;;;;;;;18.03;66.02;101993.88;5018261;28;21114;-57
2022/08/30 00:23:14;;;;;;;;;;;;;;;18.00;66.12;101993.41;5018956;28;20511;-56
2022/08/30 00:25:39;;;;;;;;;;;;;;;17.97;66.28;101997.31;5018053;28;19974;-57
2022/08/30 00:28:04;;;;;;;;;;;;;;;17.94;66.55;102000.41;5012759;28;19917;-56
2022/08/30 00:30:30;;;;;;;;;;;;;;;17.91;66.74;102000.75;5020490;28;19913;-57
2022/08/30 00:32:56;;;;;;;;;;;;;;;17.88;66.93;102001.13;5017539;28;19975;-56
2022/08/30 00:35:21;;;;;;;;;;;;;;;17.85;66.91;102001.50;5015918;28;20417;-56
2022/08/30 00:37:47;;;;;;;;;;;;;;;17.81;66.99;101997.56;5016853;28;19920;-57
2022/08/30 00:40:14;;;;;;;;;;;;;;;17.77;67.13;101996.28;5015867;28;19920;-55
2022/08/30 00:42:40;;;;;;;;;;;;;;;17.72;67.13;101994.16;5013455;28;19912;-55
2022/08/30 00:45:13;;;;;;;;;;;;;;;17.68;67.48;101994.72;5015902;28;20384;-55
2022/08/30 00:47:39;;;;;;;;;;;;;;;17.65;67.57;102001.28;5015570;28;20036;-54
2022/08/30 00:50:07;;;;;;;;;;;;;;;17.61;67.83;102002.66;5023062;28;20420;-54
2022/08/30 00:52:32;;;;;;;;;;;;;;;17.59;67.84;102000.16;5024658;28;19917;-55
2022/08/30 00:54:57;;;;;;;;;;;;;;;17.57;67.86;102007.56;5026876;28;19921;-55
2022/08/30 00:57:23;;;;;;;;;;;;;;;17.55;68.18;102001.56;5022893;28;19927;-56
2022/08/30 00:59:48;;;;;;;;;;;;;;;17.53;68.08;102000.91;5018784;28;19992;-57
2022/08/30 01:02:14;;;;;;;;;;;;;;;17.52;68.48;102001.09;5023373;28;19959;-55
2022/08/30 01:04:41;;;;;;;;;;;;;;;17.50;68.33;102008.53;5022544;28;19917;-56
2022/08/30 01:07:07;;;;;;;;;;;;;;;17.49;68.20;102006.84;5023130;28;20011;-54
2022/08/30 01:09:32;;;;;;;;;;;;;;;17.47;68.41;101999.00;5018325;28;20011;-54
2022/08/30 01:11:57;;;;;;;;;;;;;;;17.48;68.69;102008.72;5022633;28;19916;-56
2022/08/30 01:14:22;;;;;;;;;;;;;;;17.48;68.67;102019.44;5017034;28;20280;-54
2022/08/30 01:16:49;;;;;;;;;;;;;;;17.49;68.62;102014.91;5016624;28;19914;-54
2022/08/30 01:19:24;;;;;;;;;;;;;;;17.47;68.41;102019.63;5018740;28;19913;-54
2022/08/30 01:21:53;;;;;;;;;;;;;;;17.47;68.62;102025.00;5020775;28;19967;-53
2022/08/30 01:24:18;;;;;;;;;;;;;;;17.46;68.34;102023.34;5026857;28;20408;-54
2022/08/30 01:26:43;;;;;;;;;;;;;;;17.46;68.58;102024.19;5018202;28;20056;-55
2022/08/30 01:29:09;;;;;;;;;;;;;;;17.44;68.48;102025.38;5024951;28;19912;-55
2022/08/30 01:31:35;;;;;;;;;;;;;;;17.43;68.26;102029.09;5018570;28;20476;-55
2022/08/30 01:34:01;;;;;;;;;;;;;;;17.43;68.25;102027.25;5023795;28;19920;-54
2022/08/30 01:36:27;;;;;;;;;;;;;;;17.44;68.40;102025.38;5022495;28;20342;-55
2022/08/30 01:38:54;;;;;;;;;;;;;;;17.43;68.71;102024.56;5018799;28;19955;-55
2022/08/30 01:41:24;;;;;;;;;;;;;;;17.43;68.83;102024.56;5022378;28;19917;-55
2022/08/30 01:43:50;;;;;;;;;;;;;;;17.43;68.80;102021.03;5018725;28;19960;-55
2022/08/30 01:46:17;;;;;;;;;;;;;;;17.42;68.80;102022.06;5019895;28;19928;-55
2022/08/30 01:48:42;;;;;;;;;;;;;;;17.40;68.87;102019.56;5016045;28;19917;-54
2022/08/30 01:51:11;;;;;;;;;;;;;;;17.36;69.22;102020.97;5017377;28;19921;-55
2022/08/30 01:53:37;;;;;;;;;;;;;;;17.32;68.82;102014.28;5020463;28;19996;-55
2022/08/30 01:56:04;;;;;;;;;;;;;;;17.30;69.05;102013.63;5018002;28;19923;-55
2022/08/30 01:58:29;;;;;;;;;;;;;;;17.29;69.03;102014.66;5021858;28;20380;-53
2022/08/30 02:00:54;;;;;;;;;;;;;;;17.24;69.39;102015.19;5017798;28;19913;-56
2022/08/30 02:03:19;;;;;;;;;;;;;;;17.22;69.53;102008.34;5017221;28;21431;-56
2022/08/30 02:05:45;;;;;;;;;;;;;;;17.17;69.37;102011.59;5021744;28;19923;-55
2022/08/30 02:08:10;;;;;;;;;;;;;;;17.13;69.52;102007.63;5023759;28;19917;-56
2022/08/30 02:10:35;;;;;;;;;;;;;;;17.10;69.99;102013.38;5018862;28;19917;-55
2022/08/30 02:13:00;;;;;;;;;;;;;;;17.04;70.23;102006.88;5014860;28;19920;-55
2022/08/30 02:15:26;;;;;;;;;;;;;;;16.99;70.27;102001.22;5022881;28;20008;-56
2022/08/30 02:17:51;;;;;;;;;;;;;;;16.96;70.48;102001.59;5018269;28;19996;-54
2022/08/30 02:20:16;;;;;;;;;;;;;;;16.93;69.60;102006.50;5015680;28;19912;-55
2022/08/30 02:22:41;;;;;;;;;;;;;;;16.88;69.77;102007.06;5020473;28;19924;-53
2022/08/30 02:25:07;;;;;;;;;;;;;;;16.86;69.98;102005.56;5019343;28;19919;-56
2022/08/30 02:27:32;;;;;;;;;;;;;;;16.82;70.35;102001.59;5019155;28;19924;-55
2022/08/30 02:29:57;;;;;;;;;;;;;;;16.81;69.91;102005.28;5024338;28;19913;-57
2022/08/30 02:32:23;;;;;;;;;;;;;;;16.78;70.19;102000.31;5018554;28;19917;-56
2022/08/30 02:34:48;;;;;;;;;;;;;;;16.76;70.27;101999.63;5017649;28;20069;-56
2022/08/30 02:37:14;;;;;;;;;;;;;;;16.74;70.48;101997.13;5018006;28;19909;-57
2022/08/30 02:39:39;;;;;;;;;;;;;;;16.75;70.63;101997.94;5020124;28;19928;-55
2022/08/30 02:42:04;;;;;;;;;;;;;;;16.73;70.62;101998.13;5014921;28;19975;-57
2022/08/30 02:44:29;;;;;;;;;;;;;;;16.73;70.94;101998.13;5018703;28;19913;-56
2022/08/30 02:46:55;;;;;;;;;;;;;;;16.72;70.96;101993.78;5015772;28;19940;-54
2022/08/30 02:49:20;;;;;;;;;;;;;;;16.72;71.12;101993.78;5022137;28;20002;-56
2022/08/30 02:51:45;;;;;;;;;;;;;;;16.71;71.11;101994.81;5017954;28;19916;-54
2022/08/30 02:54:14;;;;;;;;;;;;;;;16.69;71.28;101996.84;5018747;28;19913;-55
2022/08/30 02:56:40;;;;;;;;;;;;;;;16.66;71.39;101998.03;5013185;28;19987;-55
2022/08/30 02:59:05;;;;;;;;;;;;;;;16.65;71.68;101992.81;5018214;28;19913;-55
2022/08/30 03:01:34;;;;;;;;;;;;;;;16.63;71.58;101989.50;5018427;28;19917;-56
2022/08/30 03:03:59;;;;;;;;;;;;;;;16.59;71.67;101985.50;5014995;28;20369;-56
2022/08/30 03:06:24;;;;;;;;;;;;;;;16.58;71.80;101979.31;5021273;28;20110;-57
2022/08/30 03:08:49;;;;;;;;;;;;;;;16.56;71.73;101976.00;5026645;28;19929;-57
2022/08/30 03:11:15;;;;;;;;;;;;;;;16.55;72.14;101978.84;5019868;28;19956;-56
2022/08/30 03:13:40;;;;;;;;;;;;;;;16.53;71.96;101978.19;5014280;28;19913;-55
2022/08/30 03:16:05;;;;;;;;;;;;;;;16.50;72.39;101978.56;5015664;28;19913;-56
2022/08/30 03:18:31;;;;;;;;;;;;;;;16.48;72.33;101976.06;5021243;28;20020;-55
2022/08/30 03:20:57;;;;;;;;;;;;;;;16.48;72.43;101980.56;5017004;28;19910;-55
2022/08/30 03:23:22;;;;;;;;;;;;;;;16.46;72.10;101974.56;5016663;28;19921;-55
2022/08/30 03:25:48;;;;;;;;;;;;;;;16.47;71.59;101978.91;5013153;28;20003;-55
2022/08/30 03:28:13;;;;;;;;;;;;;;;16.46;72.02;101978.06;5016556;28;19917;-56
2022/08/30 03:30:38;;;;;;;;;;;;;;;16.45;71.68;101981.78;5017112;28;19928;-54
2022/08/30 03:33:03;;;;;;;;;;;;;;;16.45;71.78;101980.94;5016253;28;19998;-55
2022/08/30 03:35:30;;;;;;;;;;;;;;;16.43;72.17;101979.28;5021443;28;20004;-55
2022/08/30 03:37:55;;;;;;;;;;;;;;;16.41;72.12;101988.50;5014894;28;19925;-55
2022/08/30 03:40:21;;;;;;;;;;;;;;;16.39;72.06;101987.88;5022915;28;19921;-55
2022/08/30 03:42:47;;;;;;;;;;;;;;;16.38;72.24;101989.72;5016731;28;19916;-54
2022/08/30 03:45:13;;;;;;;;;;;;;;;16.37;72.17;101993.41;5016299;28;20001;-54
2022/08/30 03:47:38;;;;;;;;;;;;;;;16.37;72.26;101995.25;5017889;28;19931;-53
2022/08/30 03:50:04;;;;;;;;;;;;;;;16.34;72.05;101984.91;5016859;28;20007;-56
2022/08/30 03:52:29;;;;;;;;;;;;;;;16.33;72.25;101984.06;5015575;28;20307;-55
2022/08/30 03:54:54;;;;;;;;;;;;;;;16.32;72.66;101978.88;5014929;28;19922;-54
2022/08/30 03:57:19;;;;;;;;;;;;;;;16.30;72.55;101979.06;5023122;28;19967;-55
2022/08/30 03:59:45;;;;;;;;;;;;;;;16.27;72.61;101975.91;5013348;28;19968;-55
2022/08/30 04:02:10;;;;;;;;;;;;;;;16.22;72.90;101973.78;5015125;28;19920;-55
2022/08/30 04:04:35;;;;;;;;;;;;;;;16.19;72.91;101975.97;5015960;28;20476;-55
2022/08/30 04:07:00;;;;;;;;;;;;;;;16.15;73.49;101975.47;5018584;28;19971;-54
2022/08/30 04:09:25;;;;;;;;;;;;;;;16.12;73.52;101981.22;5015012;28;19917;-55
2022/08/30 04:11:51;;;;;;;;;;;;;;;16.10;73.46;101984.06;5012568;28;20412;-54
2022/08/30 04:14:16;;;;;;;;;;;;;;;16.10;73.69;101991.28;5017327;28;20297;-56
2022/08/30 04:16:42;;;;;;;;;;;;;;;16.09;74.01;101986.94;5021823;28;19917;-52
2022/08/30 04:19:07;;;;;;;;;;;;;;;16.07;73.97;101987.09;5018048;28;20380;-55
2022/08/30 04:21:32;;;;;;;;;;;;;;;16.05;73.64;101989.13;5017925;28;19932;-55
2022/08/30 04:23:57;;;;;;;;;;;;;;;16.05;73.82;101990.97;5022800;28;19963;-56
2022/08/30 04:26:23;;;;;;;;;;;;;;;16.04;73.91;101992.00;5021029;28;20071;-54
2022/08/30 04:28:48;;;;;;;;;;;;;;;16.04;74.09;101992.00;5020099;28;20393;-53
2022/08/30 04:31:14;;;;;;;;;;;;;;;16.03;74.25;101993.00;5022245;28;19920;-54
2022/08/30 04:33:40;;;;;;;;;;;;;;;16.03;74.60;101996.53;5027971;28;19917;-55
2022/08/30 04:36:06;;;;;;;;;;;;;;;16.01;75.04;101992.34;5023981;28;19913;-55
2022/08/30 04:38:32;;;;;;;;;;;;;;;15.99;75.14;101997.88;5024538;28;19939;-55
2022/08/30 04:40:57;;;;;;;;;;;;;;;15.96;74.76;101998.25;5018285;28;19920;-55
2022/08/30 04:43:25;;;;;;;;;;;;;;;15.96;74.93;101995.56;5024275;28;20565;-54
2022/08/30 04:45:51;;;;;;;;;;;;;;;15.95;74.88;102001.94;5020910;28;20428;-55
2022/08/30 04:48:17;;;;;;;;;;;;;;;15.94;75.39;101999.44;5021112;28;19979;-56
2022/08/30 04:50:42;;;;;;;;;;;;;;;15.91;75.20;102000.63;5027582;28;20373;-56
2022/08/30 04:53:07;;;;;;;;;;;;;;;15.91;74.97;102007.84;5020691;28;20373;-55
2022/08/30 04:55:33;;;;;;;;;;;;;;;15.88;75.16;102003.63;5022173;28;20322;-57
2022/08/30 04:57:58;;;;;;;;;;;;;;;15.89;75.19;102016.03;5025749;28;19944;-55
2022/08/30 05:00:23;;;;;;;;;;;;;;;15.89;75.36;102012.50;5026827;28;20008;-56
2022/08/30 05:02:48;;;;;;;;;;;;;;;15.88;75.67;102021.56;5024588;28;19968;-54
2022/08/30 05:07:58;;;;;;;;;;;;;;;15.88;75.93;102016.19;5021972;28;19991;-55
2022/08/30 05:10:24;;;;;;;;;;;;;;;15.89;76.04;102017.88;5029212;28;20069;-56
2022/08/30 05:12:49;;;;;;;;;;;;;;;15.89;76.24;102015.19;5020207;28;19921;-56
2022/08/30 05:15:14;;;;;;;;;;;;;;;15.91;76.03;102021.22;5018446;28;20046;-56
2022/08/30 05:17:39;;;;;;;;;;;;;;;15.91;76.07;102015.88;5019593;28;19913;-56
2022/08/30 05:20:08;;;;;;;;;;;;;;;15.92;75.83;102022.91;5023720;28;19920;-56
2022/08/30 05:22:40;;;;;;;;;;;;;;;15.93;75.92;102020.03;5027309;28;19924;-56
2022/08/30 05:25:06;;;;;;;;;;;;;;;15.95;75.96;102026.06;5035567;28;19912;-56
2022/08/30 05:27:31;;;;;;;;;;;;;;;15.96;76.53;102032.25;5020405;28;20400;-55
2022/08/30 05:29:57;;;;;;;;;;;;;;;15.98;76.74;102032.91;5020615;28;19921;-56
2022/08/30 05:32:22;;;;;;;;;;;;;;;16.00;77.13;102033.56;5024185;28;19924;-55
2022/08/30 05:34:47;;;;;;;;;;;;;;;16.02;76.71;102028.84;5022801;28;19913;-55
2022/08/30 05:37:13;;;;;;;;;;;;;;;16.03;76.74;102035.88;5022189;28;20003;-56
2022/08/30 05:39:38;;;;;;;;;;;;;;;16.06;76.91;102032.84;5023801;28;19913;-56
2022/08/30 05:42:03;;;;;;;;;;;;;;;16.09;77.28;102045.88;5021910;28;20330;-56
2022/08/30 05:44:28;;;;;;;;;;;;;;;16.13;77.01;102041.84;5033376;28;19909;-56
2022/08/30 05:46:53;;;;;;;;;;;;;;;16.19;77.16;102046.50;5040115;28;20011;-56
2022/08/30 05:49:19;;;;;;;;;;;;;;;16.23;77.22;102042.47;5031915;28;20010;-54
2022/08/30 05:51:44;;;;;;;;;;;;;;;16.28;77.49;102041.91;5041255;28;19908;-55
2022/08/30 05:54:10;;;;;;;;;;;;;;;16.30;77.40;102038.03;5039775;28;19921;-54
2022/08/30 05:56:36;;;;;;;;;;;;;;;16.32;77.27;102044.06;5029065;28;19909;-55
2022/08/30 05:59:06;;;;;;;;;;;;;;;16.34;77.14;102036.66;5026734;28;19909;-55
2022/08/30 06:01:32;;;;;;;;;;;;;;;16.37;77.09;102038.97;5024320;28;19999;-54
2022/08/30 06:03:59;;;;;;;;;;;;;;;16.41;77.43;102042.97;5022006;28;20396;-55
2022/08/30 06:06:25;;;;;;;;;;;;;;;16.45;77.37;102043.44;5028684;28;19925;-56
2022/08/30 06:08:51;;;;;;;;;;;;;;;16.47;77.21;102041.41;5027896;28;20248;-56
2022/08/30 06:11:18;;;;;;;;;;;;;;;16.49;77.67;102043.94;5021745;28;19920;-56
2022/08/30 06:13:44;;;;;;;;;;;;;;;16.49;77.32;102042.09;5027755;28;19958;-54
2022/08/30 06:16:13;;;;;;;;;;;;;;;16.51;77.61;102037.38;5017139;28;20010;-53
2022/08/30 06:18:39;;;;;;;;;;;;;;;16.56;77.78;102042.19;5021309;28;19921;-54
2022/08/30 06:21:04;;;;;;;;;;;;;;;16.60;77.50;102040.81;5019193;28;19913;-55
2022/08/30 06:23:29;;;;;;;;;;;;;;;16.63;77.58;102035.09;5022177;28;19913;-55
2022/08/30 06:25:55;;;;;;;;;;;;;;;16.65;77.19;102035.75;5022419;28;19913;-54
2022/08/30 06:28:20;;;;;;;;;;;;;;;16.69;77.69;102032.53;5022701;28;20388;-56
2022/08/30 06:30:46;;;;;;;;;;;;;;;16.77;77.58;102028.97;5036372;28;19913;-55
2022/08/30 06:33:11;;;;;;;;;;;;;;;16.86;77.64;102035.09;5031253;28;20119;-55
2022/08/30 06:35:36;;;;;;;;;;;;;;;16.93;77.11;102039.53;5020750;28;19912;-56
2022/08/30 06:38:02;;;;;;;;;;;;;;;16.99;77.53;102040.63;5022932;28;19916;-54
2022/08/30 06:40:27;;;;;;;;;;;;;;;17.06;77.39;102030.00;5026490;28;20832;-55
2022/08/30 06:42:53;;;;;;;;;;;;;;;17.13;76.86;102037.16;5021416;28;19923;-55
2022/08/30 06:45:19;;;;;;;;;;;;;;;17.19;76.68;102032.91;5020916;28;19912;-55
2022/08/30 06:47:45;;;;;;;;;;;;;;;17.24;76.96;102034.00;5030018;28;19966;-54
2022/08/30 06:50:11;;;;;;;;;;;;;;;17.28;76.54;102029.09;5020310;28;19912;-56
2022/08/30 06:52:36;;;;;;;;;;;;;;;17.31;76.63;102029.53;5021576;28;20329;-53
2022/08/30 06:55:01;;;;;;;;;;;;;;;17.38;76.32;102037.72;5025851;28;19975;-56
2022/08/30 06:57:26;;;;;;;;;;;;;;;17.44;76.30;102033.44;5034983;28;19924;-55
2022/08/30 06:59:55;;;;;;;;;;;;;;;17.49;76.06;102039.91;5033257;28;20260;-55
2022/08/30 07:02:21;;;;;;;;;;;;;;;17.55;75.61;102038.34;5026218;28;19919;-56
2022/08/30 07:04:47;;;;;;;;;;;;;;;17.60;75.87;102033.22;5023541;28;19913;-54
2022/08/30 07:07:12;;;;;;;;;;;;;;;17.63;75.41;102041.75;5019934;28;20011;-53
2022/08/30 07:09:42;;;;;;;;;;;;;;;17.68;75.49;102037.72;5027162;28;20301;-55
2022/08/30 07:12:07;;;;;;;;;;;;;;;17.74;75.36;102042.31;5020701;28;19921;-55
2022/08/30 07:14:32;;;;;;;;;;;;;;;17.78;75.06;102039.06;5023036;28;19917;-56
2022/08/30 07:16:58;;;;;;;;;;;;;;;17.84;74.81;102040.16;5022002;28;19913;-55
2022/08/30 07:19:23;;;;;;;;;;;;;;;17.87;74.48;102043.31;5019874;28;19931;-54
2022/08/30 07:21:48;;;;;;;;;;;;;;;17.93;74.26;102041.75;5022374;28;20411;-56
2022/08/30 07:24:13;;;;;;;;;;;;;;;17.99;73.89;102050.91;5027713;28;19917;-55
2022/08/30 07:26:40;;;;;;;;;;;;;;;18.02;73.45;102051.34;5040692;28;19920;-55
2022/08/30 07:29:07;;;;;;;;;;;;;;;18.06;73.18;102047.25;5021256;28;19921;-56
2022/08/30 07:31:34;;;;;;;;;;;;;;;18.12;73.27;102049.16;5023333;28;19913;-56
2022/08/30 07:34:00;;;;;;;;;;;;;;;18.19;73.15;102057.28;5030800;28;20376;-56
2022/08/30 07:36:25;;;;;;;;;;;;;;;18.25;72.86;102057.38;5030523;28;19909;-54
2022/08/30 07:38:51;;;;;;;;;;;;;;;18.33;72.52;102052.91;5035004;28;19921;-55
2022/08/30 07:41:18;;;;;;;;;;;;;;;18.40;72.27;102053.78;5029371;28;19909;-56
2022/08/30 07:43:43;;;;;;;;;;;;;;;18.48;72.08;102050.97;5027520;28;20427;-56
2022/08/30 07:46:08;;;;;;;;;;;;;;;18.53;71.60;102062.84;5024076;28;19916;-56
2022/08/30 07:48:34;;;;;;;;;;;;;;;18.61;71.26;102059.16;5030794;28;19921;-54
2022/08/30 07:50:59;;;;;;;;;;;;;;;18.71;70.98;102066.94;5034269;28;19920;-55
2022/08/30 07:53:24;;;;;;;;;;;;;;;18.75;69.96;102057.44;5033784;28;20015;-55
2022/08/30 07:55:50;;;;;;;;;;;;;;;18.78;70.13;102063.25;5024201;28;19943;-55
2022/08/30 07:58:15;;;;;;;;;;;;;;;18.85;69.75;102060.63;5034439;28;20523;-57
2022/08/30 08:00:41;;;;;;;;;;;;;;;18.95;69.75;102061.13;5043192;28;20031;-56
2022/08/30 08:03:07;;;;;;;;;;;;;;;19.03;69.15;102055.56;5031254;28;20004;-56
2022/08/30 08:05:36;;;;;;;;;;;;;;;19.04;68.40;102059.94;5038621;28;19991;-55
2022/08/30 08:08:02;;;;;;;;;;;;;;;19.08;67.98;102058.53;5045249;28;19958;-56
2022/08/30 08:10:27;;;;;;;;;;;;;;;19.12;67.69;102054.41;5038683;28;20015;-54
2022/08/30 08:12:52;;;;;;;;;;;;;;;19.13;66.86;102052.56;5035696;28;20014;-55
2022/08/30 08:15:17;;;;;;;;;;;;;;;19.14;66.69;102062.31;5037706;28;20410;-56
2022/08/30 08:17:42;;;;;;;;;;;;;;;19.17;66.97;102067.28;5042038;28;19909;-56
2022/08/30 08:20:08;;;;;;;;;;;;;;;19.24;66.94;102065.47;5035415;28;20031;-56
2022/08/30 08:22:33;;;;;;;;;;;;;;;19.30;66.47;102061.97;5024491;28;19917;-56
2022/08/30 08:24:59;;;;;;;;;;;;;;;19.37;66.48;102059.31;5029536;28;19920;-55
2022/08/30 08:27:24;;;;;;;;;;;;;;;19.42;66.21;102070.34;5030442;28;19921;-56
2022/08/30 08:29:49;;;;;;;;;;;;;;;19.48;65.77;102050.69;5037386;28;20236;-54
2022/08/30 08:32:14;;;;;;;;;;;;;;;19.56;65.09;102064.00;5035595;28;19954;-54
2022/08/30 08:34:40;;;;;;;;;;;;;;;19.65;65.10;102061.97;5046328;28;19917;-55
2022/08/30 08:37:05;;;;;;;;;;;;;;;19.75;65.04;102073.22;5032163;28;20350;-55
2022/08/30 08:39:30;;;;;;;;;;;;;;;19.83;64.88;102070.34;5030036;28;19982;-55
2022/08/30 08:42:08;;;;;;;;;;;;;;;19.92;64.04;102071.00;5036886;28;20450;-56
2022/08/30 08:44:43;;;;;;;;;;;;;;;19.98;64.42;102070.22;5040328;28;19975;-55
2022/08/30 08:47:12;;;;;;;;;;;;;;;20.03;63.68;102065.88;5026485;28;21113;-55
2022/08/30 08:49:39;;;;;;;;;;;;;;;20.02;63.28;102077.69;5035490;28;19909;-56
2022/08/30 08:54:55;;;;;;;;;;;;;;;20.14;63.26;102077.09;5006757;28;19909;-57
2022/08/30 08:57:20;;;;;;;;;;;;;;;20.21;62.94;102080.63;5039670;28;20400;-55
2022/08/30 08:59:45;;;;;;;;;;;;;;;20.27;62.67;102071.72;5037111;28;19913;-57
2022/08/30 09:02:21;;;;;;;;;;;;;;;20.34;62.36;102080.66;5029871;28;20594;-55
2022/08/30 09:04:46;;;;;;;;;;;;;;;20.41;62.13;102076.97;5026617;28;19935;-56
2022/08/30 09:07:23;;;;;;;;;;;;;;;20.49;61.78;102081.31;5036851;28;20320;-53
2022/08/30 09:09:48;;;;;;;;;;;;;;;20.56;61.19;102076.78;5017830;28;20377;-55
2022/08/30 09:12:14;;;;;;;;;;;;;;;20.63;60.92;102079.47;5032978;28;19919;-57
2022/08/30 09:14:41;;;;;;;;;;;;;;;20.67;60.82;102075.34;5029506;28;19913;-55
2022/08/30 09:17:08;;;;;;;;;;;;;;;20.68;60.61;102077.81;5028625;28;19913;-56
2022/08/30 09:19:37;;;;;;;;;;;;;;;20.70;60.39;102072.22;5029657;28;20618;-56
2022/08/30 09:22:11;;;;;;;;;;;;;;;20.77;60.82;102074.91;5028723;28;19920;-56
2022/08/30 09:24:42;;;;;;;;;;;;;;;20.87;60.30;102076.16;5041181;28;20069;-55
2022/08/30 09:27:29;;;;;;;;;;;;;;;20.91;60.20;102071.19;5040713;28;19916;-56
2022/08/30 09:29:56;;;;;;;;;;;;;;;20.93;59.38;102069.09;5038795;28;20139;-54
2022/08/30 09:32:23;;;;;;;;;;;;;;;20.97;59.28;102073.88;5043207;28;20387;-56
2022/08/30 09:34:48;;;;;;;;;;;;;;;21.03;59.04;102085.69;5023788;28;19909;-55
2022/08/30 09:37:24;;;;;;;;;;;;;;;21.10;58.87;102080.28;5024790;28;19927;-56
2022/08/30 09:39:50;;;;;;;;;;;;;;;21.18;58.63;102088.19;5030106;28;19917;-55
2022/08/30 09:42:20;;;;;;;;;;;;;;;21.25;58.22;102078.22;5038627;28;19908;-57
2022/08/30 09:44:45;;;;;;;;;;;;;;;21.40;58.55;102078.81;5019680;28;19917;-54
2022/08/30 09:47:30;;;;;;;;;;;;;;;21.53;57.79;102076.06;5031792;28;19917;-57
2022/08/30 09:50:06;;;;;;;;;;;;;;;21.71;57.51;102080.81;5024734;28;19913;-55
2022/08/30 09:52:50;;;;;;;;;;;;;;;21.89;57.39;102078.22;5026982;28;20012;-57
2022/08/30 09:55:22;;;;;;;;;;;;;;;22.11;56.81;102077.94;5024693;28;19948;-56
2022/08/30 09:57:47;;;;;;;;;;;;;;;22.32;55.80;102079.47;5025004;28;19917;-55
2022/08/30 10:00:16;;;;;;;;;;;;;;;22.49;55.51;102081.41;5028647;28;20391;-56
2022/08/30 10:02:56;;;;;;;;;;;;;;;22.67;55.10;102082.56;5022091;28;19913;-55
2022/08/30 10:05:42;;;;;;;;;;;;;;;22.82;54.22;102074.94;5028921;28;19919;-57
2022/08/30 10:08:10;;;;;;;;;;;;;;;22.96;53.49;102075.66;5026822;28;19921;-56
2022/08/30 10:10:35;;;;;;;;;;;;;;;23.10;53.38;102072.59;5028354;28;19924;-56
2022/08/30 10:13:13;;;;;;;;;;;;;;;23.18;52.84;102075.03;5028079;28;19913;-57
2022/08/30 10:15:46;;;;;;;;;;;;;;;23.23;52.32;102081.66;5024653;28;19921;-56
2022/08/30 10:18:18;;;;;;;;;;;;;;;23.22;52.39;102082.72;5031928;28;19913;-55
2022/08/30 10:20:49;;;;;;;;;;;;;;;23.20;52.24;102079.41;5017419;28;19940;-56
2022/08/30 10:23:14;;;;;;;;;;;;;;;23.18;52.22;102074.19;5028387;28;20394;-56
2022/08/30 10:25:42;;;;;;;;;;;;;;;23.17;51.52;102075.25;5039900;28;20373;-55
2022/08/30 10:28:07;;;;;;;;;;;;;;;23.13;51.44;102071.31;5035818;28;19923;-56
2022/08/30 10:30:35;;;;;;;;;;;;;;;23.12;51.25;102077.78;5030616;28;19921;-56
2022/08/30 10:33:07;;;;;;;;;;;;;;;23.12;51.11;102078.63;5028982;28;19913;-57
2022/08/30 10:35:36;;;;;;;;;;;;;;;23.16;51.40;102070.88;5029447;28;20327;-56
2022/08/30 10:38:08;;;;;;;;;;;;;;;23.26;51.25;102064.94;5031331;28;19967;-56
2022/08/30 10:43:35;;;;;;;;;;;;;;;23.43;50.85;102061.41;5022148;28;19983;-57
2022/08/30 10:46:04;;;;;;;;;;;;;;;23.54;50.66;102059.81;5033714;28;19908;-57
2022/08/30 10:48:34;;;;;;;;;;;;;;;23.63;50.36;102069.34;5030975;28;20361;-56
2022/08/30 10:51:03;;;;;;;;;;;;;;;23.80;50.26;102061.41;5029269;28;19949;-55
2022/08/30 10:53:30;;;;;;;;;;;;;;;24.00;49.76;102063.88;5030488;28;19917;-56
2022/08/30 10:56:05;;;;;;;;;;;;;;;24.12;48.73;102058.47;5039654;28;19915;-56
2022/08/30 10:58:31;;;;;;;;;;;;;;;24.19;48.83;102060.03;5029565;28;20587;-57
2022/08/30 11:01:16;;;;;;;;;;;;;;;24.30;48.53;102053.84;5022407;28;20287;-57
2022/08/30 11:03:50;;;;;;;;;;;;;;;24.27;48.03;102058.84;5024351;28;19916;-57
2022/08/30 11:06:39;;;;;;;;;;;;;;;24.30;48.10;102063.88;5023676;28;20353;-56
2022/08/30 11:09:23;;;;;;;;;;;;;;;24.43;47.38;102057.41;4999776;28;19913;-57
2022/08/30 11:11:48;;;;;;;;;;;;;;;24.53;47.26;102057.66;5043129;28;19915;-57
2022/08/30 11:14:16;;;;;;;;;;;;;;;24.61;46.97;102060.88;5044092;28;19909;-57
2022/08/30 11:16:44;;;;;;;;;;;;;;;24.69;46.49;102054.25;5033651;28;19919;-56
2022/08/30 11:19:15;;;;;;;;;;;;;;;24.75;45.94;102050.59;5041919;28;19999;-57
2022/08/30 11:21:41;;;;;;;;;;;;;;;24.78;45.90;102050.13;5044362;28;19917;-57
2022/08/30 11:24:07;;;;;;;;;;;;;;;24.77;45.43;102045.75;5042400;28;19915;-56
2022/08/30 11:26:45;;;;;;;;;;;;;;;24.76;45.67;102048.72;5035765;28;20003;-57
2022/08/30 11:29:29;;;;;;;;;;;;;;;24.84;45.29;102051.88;5035846;28;19921;-57
2022/08/30 11:31:56;;;;;;;;;;;;;;;24.95;45.28;102053.78;5017786;28;19920;-57
2022/08/30 11:34:40;;;;;;;;;;;;;;;25.01;44.58;102043.91;5027140;28;20430;-57
2022/08/30 11:37:06;;;;;;;;;;;;;;;25.05;44.31;102049.69;5033921;28;19909;-56
2022/08/30 11:39:43;;;;;;;;;;;;;;;25.06;44.11;102041.28;5033399;28;19917;-56
2022/08/30 11:42:29;;;;;;;;;;;;;;;24.97;43.59;102045.41;5040415;28;20460;-57
2022/08/30 11:45:34;;;;;;;;;;;;;;;24.86;43.43;102041.59;5032005;28;20410;-57
2022/08/30 11:48:04;;;;;;;;;;;;;;;24.74;43.87;102035.34;5035878;28;20343;-56
2022/08/30 11:50:48;;;;;;;;;;;;;;;24.64;43.61;102041.38;5036269;28;19913;-55
2022/08/30 11:53:22;;;;;;;;;;;;;;;24.66;43.51;102035.72;5018212;28;19928;-56
2022/08/30 11:56:08;;;;;;;;;;;;;;;24.65;43.29;102034.06;5025145;28;20000;-56
2022/08/30 11:58:34;;;;;;;;;;;;;;;24.64;43.31;102032.41;5025378;28;20385;-56
2022/08/30 12:01:17;;;;;;;;;;;;;;;24.73;43.50;102028.28;5023577;28;20272;-55
2022/08/30 12:03:43;;;;;;;;;;;;;;;24.77;43.36;102034.06;5017654;28;20003;-57
2022/08/30 12:06:09;;;;;;;;;;;;;;;24.82;43.32;102015.97;5029235;28;20042;-56
2022/08/30 12:08:39;;;;;;;;;;;;;;;24.87;43.17;102029.69;5042281;28;20400;-56
2022/08/30 12:11:10;;;;;;;;;;;;;;;24.88;43.37;102027.81;5029068;28;19913;-57
2022/08/30 12:13:35;;;;;;;;;;;;;;;24.92;42.99;102021.66;5016784;28;19964;-57
2022/08/30 12:16:04;;;;;;;;;;;;;;;24.98;42.51;102034.31;5019544;28;19952;-56
2022/08/30 12:18:35;;;;;;;;;;;;;;;24.99;42.58;102021.56;5025336;28;19912;-57
2022/08/30 12:21:04;;;;;;;;;;;;;;;25.00;42.68;102021.31;5021468;28;19913;-57
2022/08/30 12:23:34;;;;;;;;;;;;;;;25.01;42.36;102019.44;5025678;28;20007;-56
2022/08/30 12:26:18;;;;;;;;;;;;;;;24.98;42.31;102023.47;5023439;28;19988;-56
2022/08/30 12:28:45;;;;;;;;;;;;;;;24.91;41.84;102016.47;5020956;28;19929;-57
2022/08/30 12:31:16;;;;;;;;;;;;;;;24.84;42.01;102016.56;5024808;28;20373;-57
2022/08/30 12:33:47;;;;;;;;;;;;;;;24.91;42.15;102013.75;5021570;28;19917;-57
2022/08/30 12:36:32;;;;;;;;;;;;;;;24.98;42.44;102020.75;5017998;28;19913;-57
2022/08/30 12:39:08;;;;;;;;;;;;;;;25.08;42.12;102003.81;5022279;28;19959;-57
2022/08/30 12:41:33;;;;;;;;;;;;;;;25.16;41.84;102008.91;5020423;28;19913;-57
2022/08/30 12:43:59;;;;;;;;;;;;;;;25.26;41.85;102000.97;5030596;28;19909;-55
2022/08/30 12:46:25;;;;;;;;;;;;;;;25.32;41.29;102005.44;5031622;28;19921;-56